createdAt,value
2022-09-10T00:00:04.883Z,99282.28
2022-09-10T00:02:33.593Z,99279.03
2022-09-10T00:05:02.414Z,99286.94
2022-09-10T00:07:32.590Z,99295.81
2022-09-10T00:10:00.495Z,99283.88
2022-09-10T00:12:29.553Z,99285.09
2022-09-10T00:14:57.127Z,99295.78
2022-09-10T00:17:25.244Z,99297.75
2022-09-10T00:19:52.827Z,99297.09
2022-09-10T00:22:22.470Z,99295.53
2022-09-10T00:24:50.071Z,99296.38
2022-09-10T00:27:17.772Z,99301.56
2022-09-10T00:29:46.832Z,99301.56
2022-09-10T00:32:14.598Z,99266.41
2022-09-10T00:34:42.203Z,99303.09
2022-09-10T00:37:09.951Z,99298.75
2022-09-10T00:39:37.578Z,99299.38
2022-09-10T00:42:05.877Z,99300.44
2022-09-10T00:45:08.442Z,99309.75
2022-09-10T00:47:37.205Z,99286.09
2022-09-10T00:50:07.907Z,99308.50
2022-09-10T00:52:39.645Z,99293.50
2022-09-10T00:55:08.802Z,99296.31
2022-09-10T00:57:36.437Z,99271.41
2022-09-10T01:00:10.680Z,99292.81
2022-09-10T01:02:38.443Z,99295.25
2022-09-10T01:05:07.164Z,99201.59
2022-09-10T01:07:35.238Z,99289.00
2022-09-10T01:10:06.973Z,99290.63
2022-09-10T01:12:51.371Z,99233.22
2022-09-10T01:15:23.075Z,99254.56
2022-09-10T01:17:59.487Z,99284.53
2022-09-10T01:20:48.214Z,99278.19
2022-09-10T01:23:34.924Z,99280.03
2022-09-10T01:26:07.500Z,99280.19
2022-09-10T01:28:39.484Z,99283.53
2022-09-10T01:31:11.942Z,99245.91
2022-09-10T01:33:43.002Z,99287.53
2022-09-10T01:36:13.075Z,99294.41
2022-09-10T01:38:41.854Z,99289.09
2022-09-10T01:41:10.157Z,99287.38
2022-09-10T01:43:39.230Z,99288.38
2022-09-10T01:46:19.163Z,99286.75
2022-09-10T01:49:13.840Z,99284.88
2022-09-10T01:51:50.634Z,99288.78
2022-09-10T01:54:24.852Z,99282.78
2022-09-10T01:56:54.964Z,99282.06
2022-09-10T01:59:30.335Z,99293.81
2022-09-10T02:02:01.272Z,99271.97
2022-09-10T02:04:29.032Z,99226.53
2022-09-10T02:06:56.713Z,99278.38
2022-09-10T02:09:24.504Z,99270.78
2022-09-10T02:11:53.501Z,99275.28
2022-09-10T02:14:22.061Z,99274.50
2022-09-10T02:16:52.861Z,99280.81
2022-09-10T02:19:20.524Z,99286.03
2022-09-10T02:21:48.187Z,99286.97
2022-09-10T02:24:15.891Z,99278.16
2022-09-10T02:26:44.312Z,99279.19
2022-09-10T02:29:13.674Z,99284.41
2022-09-10T02:31:41.415Z,99278.47
2022-09-10T02:34:10.663Z,99284.47
2022-09-10T02:36:39.590Z,99289.91
2022-09-10T02:39:08.063Z,99282.75
2022-09-10T02:41:35.750Z,99280.03
2022-09-10T02:44:03.986Z,99283.63
2022-09-10T02:46:31.804Z,99213.41
2022-09-10T02:48:59.488Z,99296.91
2022-09-10T02:51:28.606Z,99289.84
2022-09-10T02:53:56.433Z,99290.84
2022-09-10T02:56:24.605Z,99287.41
2022-09-10T02:58:52.222Z,99291.78
2022-09-10T03:01:21.597Z,99275.22
2022-09-10T03:03:50.244Z,99288.97
2022-09-10T03:06:19.360Z,99286.25
2022-09-10T03:08:48.558Z,99287.25
2022-09-10T03:11:16.354Z,99288.13
2022-09-10T03:13:45.920Z,99275.09
2022-09-10T03:16:13.773Z,99277.03
2022-09-10T03:18:41.916Z,99171.63
2022-09-10T03:21:10.701Z,99273.88
2022-09-10T03:23:40.315Z,99270.66
2022-09-10T03:26:10.197Z,99273.34
2022-09-10T03:28:38.610Z,99275.81
2022-09-10T03:31:06.692Z,99265.56
2022-09-10T03:33:34.412Z,99267.28
2022-09-10T03:36:02.659Z,99277.94
2022-09-10T03:38:30.291Z,99273.44
2022-09-10T03:40:58.107Z,99270.78
2022-09-10T03:43:27.270Z,99265.78
2022-09-10T03:45:55.308Z,99270.91
2022-09-10T03:48:22.956Z,99272.63
2022-09-10T03:50:50.900Z,99267.34
2022-09-10T03:53:19.051Z,99267.34
2022-09-10T03:55:47.171Z,99264.34
2022-09-10T03:58:14.841Z,99275.03
2022-09-10T04:00:43.932Z,99278.47
2022-09-10T04:03:12.002Z,99280.06
2022-09-10T04:05:40.958Z,99279.03
2022-09-10T04:08:09.855Z,99278.91
2022-09-10T04:10:37.667Z,99282.41
2022-09-10T04:13:05.336Z,99276.38
2022-09-10T04:15:33.113Z,99284.09
2022-09-10T04:18:02.061Z,99282.41
2022-09-10T04:20:29.769Z,99278.91
2022-09-10T04:22:57.639Z,99283.34
2022-09-10T04:25:25.408Z,99286.75
2022-09-10T04:27:53.005Z,99277.97
2022-09-10T04:30:20.750Z,99285.81
2022-09-10T04:32:49.613Z,99282.28
2022-09-10T04:35:20.287Z,99290.34
2022-09-10T04:37:47.873Z,99285.13
2022-09-10T04:40:15.666Z,99281.00
2022-09-10T04:42:43.401Z,99291.06
2022-09-10T04:45:11.590Z,99286.63
2022-09-10T04:47:39.553Z,99296.28
2022-09-10T04:50:08.293Z,99292.88
2022-09-10T04:52:37.217Z,99272.38
2022-09-10T04:55:05.607Z,99299.94
2022-09-10T04:57:33.225Z,99299.22
2022-09-10T05:00:01.351Z,99297.50
2022-09-10T05:02:29.172Z,99295.75
2022-09-10T05:04:56.929Z,99293.00
2022-09-10T05:07:24.561Z,99299.88
2022-09-10T05:09:53.753Z,99245.53
2022-09-10T05:12:22.888Z,99295.38
2022-09-10T05:14:50.653Z,99292.72
2022-09-10T05:17:18.237Z,99292.88
2022-09-10T05:19:45.983Z,99301.59
2022-09-10T05:22:13.641Z,99301.59
2022-09-10T05:24:44.604Z,99294.50
2022-09-10T05:27:13.574Z,99301.44
2022-09-10T05:29:41.384Z,99300.44
2022-09-10T05:32:09.824Z,99303.94
2022-09-10T05:34:39.941Z,99301.22
2022-09-10T05:37:08.715Z,99305.47
2022-09-10T05:39:36.588Z,99310.59
2022-09-10T05:42:04.753Z,99313.09
2022-09-10T05:44:34.278Z,99314.75
2022-09-10T05:47:02.152Z,99309.28
2022-09-10T05:49:30.370Z,99307.91
2022-09-10T05:51:58.513Z,99313.75
2022-09-10T05:54:26.372Z,99314.75
2022-09-10T05:56:54.221Z,99316.47
2022-09-10T05:59:22.193Z,99300.28
2022-09-10T06:01:52.051Z,99324.34
2022-09-10T06:04:20.313Z,99324.41
2022-09-10T06:06:48.310Z,99320.91
2022-09-10T06:09:17.143Z,99312.88
2022-09-10T06:11:44.875Z,99325.13
2022-09-10T06:14:14.855Z,99322.53
2022-09-10T06:16:42.735Z,99323.31
2022-09-10T06:19:12.504Z,99329.50
2022-09-10T06:21:40.391Z,99331.38
2022-09-10T06:24:08.602Z,99333.94
2022-09-10T06:26:37.133Z,99336.50
2022-09-10T06:29:05.221Z,99346.13
2022-09-10T06:31:34.660Z,99338.94
2022-09-10T06:34:03.182Z,99339.66
2022-09-10T06:36:33.254Z,99343.81
2022-09-10T06:39:03.294Z,99336.78
2022-09-10T06:41:31.197Z,99342.75
2022-09-10T06:43:59.301Z,99340.53
2022-09-10T06:49:15.816Z,99353.22
2022-09-10T06:51:45.009Z,99344.13
2022-09-10T06:54:13.276Z,99354.28
2022-09-10T06:56:42.041Z,99325.13
2022-09-10T06:59:10.063Z,99357.66
2022-09-10T07:01:37.906Z,99358.72
2022-09-10T07:04:06.862Z,99342.19
2022-09-10T07:06:35.616Z,99360.31
2022-09-10T07:09:05.438Z,99363.09
2022-09-10T07:11:35.938Z,99364.81
2022-09-10T07:14:07.315Z,99359.59
2022-09-10T07:16:35.585Z,99363.25
2022-09-10T07:19:05.367Z,99367.56
2022-09-10T07:21:36.862Z,99363.09
2022-09-10T07:24:06.343Z,99360.44
2022-09-10T07:26:34.156Z,99353.03
2022-09-10T07:29:01.757Z,99365.84
2022-09-10T07:31:30.372Z,99382.75
2022-09-10T07:33:58.637Z,99380.94
2022-09-10T07:36:26.396Z,99380.88
2022-09-10T07:38:54.698Z,99381.44
2022-09-10T07:41:23.724Z,99383.63
2022-09-10T07:43:54.047Z,99357.72
2022-09-10T07:46:21.835Z,99385.59
2022-09-10T07:48:49.838Z,99393.16
2022-09-10T07:51:19.120Z,99380.06
2022-09-10T07:53:50.523Z,99381.47
2022-09-10T07:56:18.672Z,99384.66
2022-09-10T07:58:47.650Z,99383.72
2022-09-10T08:01:15.826Z,99382.53
2022-09-10T08:03:43.495Z,99397.22
2022-09-10T08:06:11.224Z,99357.28
2022-09-10T08:08:39.834Z,99374.50
2022-09-10T08:11:11.723Z,99346.88
2022-09-10T08:13:40.258Z,99349.69
2022-09-10T08:16:10.410Z,99358.34
2022-09-10T08:18:38.443Z,99399.13
2022-09-10T08:21:07.547Z,99398.25
2022-09-10T08:23:35.201Z,99395.88
2022-09-10T08:26:04.427Z,99408.09
2022-09-10T08:28:32.155Z,99409.00
2022-09-10T08:31:01.786Z,99402.78
2022-09-10T08:33:32.706Z,99402.78
2022-09-10T08:36:00.646Z,99403.00
2022-09-10T08:38:31.000Z,99411.97
2022-09-10T08:41:00.020Z,99384.34
2022-09-10T08:43:31.593Z,99410.44
2022-09-10T08:45:59.772Z,99397.63
2022-09-10T08:48:27.693Z,99400.06
2022-09-10T08:50:57.814Z,99405.66
2022-09-10T08:53:26.975Z,99401.84
2022-09-10T08:55:57.705Z,99413.88
2022-09-10T08:58:26.538Z,99412.63
2022-09-10T09:00:55.021Z,99409.47
2022-09-10T09:03:23.921Z,99416.06
2022-09-10T09:05:53.809Z,99410.72
2022-09-10T09:08:25.755Z,99404.34
2022-09-10T09:10:56.127Z,99396.03
2022-09-10T09:13:41.200Z,99397.50
2022-09-10T09:16:24.643Z,99404.97
2022-09-10T09:19:02.317Z,99377.34
2022-09-10T09:21:35.169Z,99388.31
2022-09-10T09:24:20.046Z,99390.84
2022-09-10T09:26:48.081Z,99390.56
2022-09-10T09:29:21.052Z,99388.38
2022-09-10T09:31:50.982Z,99394.41
2022-09-10T09:34:29.767Z,99346.34
2022-09-10T09:37:03.282Z,99382.59
2022-09-10T09:39:37.407Z,99397.06
2022-09-10T09:42:08.028Z,99377.44
2022-09-10T09:44:38.816Z,99391.34
2022-09-10T09:47:06.513Z,99394.78
2022-09-10T09:49:34.717Z,99405.91
2022-09-10T09:52:03.045Z,99406.72
2022-09-10T09:55:03.093Z,99402.63
2022-09-10T09:57:22.320Z,99388.03
2022-09-10T09:59:50.403Z,99407.94
2022-09-10T10:02:18.798Z,99396.03
2022-09-10T10:04:55.094Z,99408.81
2022-09-10T10:07:26.655Z,99406.38
2022-09-10T10:09:55.753Z,99384.72
2022-09-10T10:12:23.533Z,99393.50
2022-09-10T10:14:51.600Z,99386.38
2022-09-10T10:17:27.339Z,99390.28
2022-09-10T10:20:08.959Z,99379.88
2022-09-10T10:22:36.939Z,99387.78
2022-09-10T10:25:07.947Z,99385.91
2022-09-10T10:27:36.610Z,99377.28
2022-09-10T10:30:22.279Z,99345.59
2022-09-10T10:32:53.098Z,99350.59
2022-09-10T10:35:27.004Z,99382.84
2022-09-10T10:38:04.046Z,99354.66
2022-09-10T10:40:34.874Z,99329.47
2022-09-10T10:43:07.994Z,99367.09
2022-09-10T10:45:38.164Z,99365.00
2022-09-10T10:48:11.596Z,99366.78
2022-09-10T10:50:45.818Z,99373.56
2022-09-10T10:54:03.599Z,99362.56
2022-09-10T10:56:35.986Z,99336.53
2022-09-10T10:59:10.515Z,99340.75
2022-09-10T11:01:39.534Z,99345.44
2022-09-10T11:04:19.602Z,99355.16
2022-09-10T11:06:49.408Z,99351.94
2022-09-10T11:09:19.453Z,99352.72
2022-09-10T11:11:52.086Z,99363.16
2022-09-10T11:14:21.925Z,99334.59
2022-09-10T11:16:55.394Z,99349.06
2022-09-10T11:19:28.281Z,99355.94
2022-09-10T11:21:58.690Z,99361.00
2022-09-10T11:24:27.963Z,99355.66
2022-09-10T11:27:00.628Z,99360.66
2022-09-10T11:29:35.098Z,99355.13
2022-09-10T11:32:06.243Z,99340.09
2022-09-10T11:34:36.347Z,99357.13
2022-09-10T11:37:06.312Z,99339.72
2022-09-10T11:39:35.438Z,99362.91
2022-09-10T11:42:08.280Z,99368.94
2022-09-10T11:44:42.010Z,99262.91
2022-09-10T11:47:14.313Z,99360.97
2022-09-10T11:49:44.513Z,99359.53
2022-09-10T11:52:12.428Z,99364.53
2022-09-10T11:54:40.338Z,99310.50
2022-09-10T11:57:11.371Z,99368.34
2022-09-10T11:59:56.010Z,99367.25
2022-09-10T12:02:41.595Z,99361.84
2022-09-10T12:05:16.442Z,99372.50
2022-09-10T12:07:46.698Z,99379.16
2022-09-10T12:10:19.913Z,99375.28
2022-09-10T12:12:50.130Z,99381.91
2022-09-10T12:15:19.833Z,99379.97
2022-09-10T12:17:49.314Z,99383.28
2022-09-10T12:20:19.235Z,99334.63
2022-09-10T12:22:48.137Z,99379.41
2022-09-10T12:25:29.279Z,99384.44
2022-09-10T12:28:01.278Z,99380.75
2022-09-10T12:31:02.881Z,99382.16
2022-09-10T12:34:12.369Z,99383.88
2022-09-10T12:37:17.095Z,99377.69
2022-09-10T12:39:45.468Z,99381.47
2022-09-10T12:42:30.695Z,99369.19
2022-09-10T12:44:59.772Z,99366.00
2022-09-10T12:47:50.199Z,99375.25
2022-09-10T12:50:32.224Z,99378.47
2022-09-10T12:53:21.038Z,99389.66
2022-09-10T12:55:53.957Z,99375.88
2022-09-10T12:58:25.100Z,99375.63
2022-09-10T13:01:05.977Z,99360.34
2022-09-10T13:03:33.812Z,99363.72
2022-09-10T13:06:04.368Z,99318.59
2022-09-10T13:08:33.655Z,99349.13
2022-09-10T13:32:40.956Z,99302.75
2022-09-10T13:39:51.303Z,99382.31
2022-09-10T13:43:13.990Z,99387.41
2022-09-10T13:46:22.009Z,99393.28
2022-09-10T13:52:26.739Z,99262.19
2022-09-10T13:55:26.361Z,99353.31
2022-09-10T13:58:31.426Z,98931.47
2022-09-10T14:01:28.424Z,99316.69
2022-09-10T14:03:58.353Z,99344.84
2022-09-10T14:06:26.538Z,99303.88
2022-09-10T14:08:55.729Z,99321.28
2022-09-10T14:11:24.972Z,99230.44
2022-09-10T14:13:56.147Z,99156.50
2022-09-10T14:16:30.108Z,99219.34
2022-09-10T14:19:01.489Z,99295.59
2022-09-10T14:21:30.145Z,99365.78
2022-09-10T14:24:02.502Z,99293.28
2022-09-10T14:26:31.831Z,99265.19
2022-09-10T14:29:01.303Z,99267.28
2022-09-10T14:31:35.699Z,99194.09
2022-09-10T14:34:27.968Z,99372.06
2022-09-10T14:36:56.169Z,99368.47
2022-09-10T14:39:24.057Z,99245.47
2022-09-10T14:42:10.991Z,99350.31
2022-09-10T14:44:42.130Z,99326.84
2022-09-10T14:47:14.787Z,99259.78
2022-09-10T14:49:47.302Z,99096.88
2022-09-10T14:52:15.649Z,99309.47
2022-09-10T14:54:43.724Z,99361.94
2022-09-10T14:57:14.919Z,99287.75
2022-09-10T14:59:44.020Z,99187.28
2022-09-10T15:02:17.004Z,99230.84
2022-09-10T15:04:47.777Z,99225.59
2022-09-10T15:36:51.927Z,99191.31
2022-09-10T15:48:31.550Z,99394.41
2022-09-10T16:20:39.879Z,99413.59
2022-09-10T16:23:09.084Z,99327.41
2022-09-10T16:25:37.258Z,99377.63
2022-09-10T16:28:05.969Z,99380.44
2022-09-10T16:30:35.062Z,99355.34
2022-09-10T16:33:03.850Z,99366.78
2022-09-10T16:35:33.218Z,99355.19
2022-09-10T16:38:02.850Z,99323.03
2022-09-10T16:40:31.593Z,99350.03
2022-09-10T16:43:00.319Z,99362.09
2022-09-10T16:45:28.393Z,99456.00
2022-09-10T16:48:03.448Z,99377.53
2022-09-10T16:50:33.851Z,99519.47
2022-09-10T16:53:04.028Z,99450.63
2022-09-10T16:55:32.690Z,99338.16
2022-09-10T16:58:01.463Z,99376.44
2022-09-10T17:00:29.864Z,99395.13
2022-09-10T17:02:59.177Z,99458.59
2022-09-10T17:05:26.796Z,99470.00
2022-09-10T17:07:54.740Z,99469.94
2022-09-10T17:10:25.283Z,99462.78
2022-09-10T17:12:54.705Z,99446.00
2022-09-10T17:15:23.327Z,99514.03
2022-09-10T17:17:52.049Z,99309.69
2022-09-10T17:20:20.122Z,99460.19
2022-09-10T17:22:48.029Z,99492.22
2022-09-10T17:25:16.686Z,99399.03
2022-09-10T17:27:45.802Z,99380.22
2022-09-10T17:30:14.006Z,99462.75
2022-09-10T17:32:41.685Z,99496.41
2022-09-10T17:35:12.093Z,99469.84
2022-09-10T17:37:40.665Z,99510.84
2022-09-10T17:40:09.467Z,99462.72
2022-09-10T17:42:37.290Z,99495.41
2022-09-10T17:45:07.484Z,99521.88
2022-09-10T17:47:35.187Z,99426.44
2022-09-10T17:50:02.835Z,99511.38
2022-09-10T17:52:30.576Z,99479.63
2022-09-10T17:54:58.179Z,99523.19
2022-09-10T17:57:25.984Z,99505.19
2022-09-10T17:59:54.494Z,99526.09
2022-09-10T18:02:23.635Z,99526.28
2022-09-10T18:04:51.389Z,99430.09
2022-09-10T18:07:19.168Z,99535.25
2022-09-10T18:09:47.650Z,99550.25
2022-09-10T18:12:16.158Z,99548.56
2022-09-10T18:14:44.210Z,99528.31
2022-09-10T18:17:13.036Z,99618.59
2022-09-10T18:19:43.276Z,99569.81
2022-09-10T18:22:11.494Z,99545.84
2022-09-10T18:24:40.425Z,99334.41
2022-09-10T18:27:08.066Z,99569.03
2022-09-10T18:29:38.798Z,99568.28
2022-09-10T18:32:07.344Z,99512.47
2022-09-10T18:34:39.784Z,99625.81
2022-09-10T18:37:09.141Z,99576.25
2022-09-10T18:39:36.969Z,99583.28
2022-09-10T18:42:06.182Z,99526.28
2022-09-10T18:44:36.418Z,99484.69
2022-09-10T18:47:05.597Z,99588.44
2022-09-10T18:49:33.505Z,99604.84
2022-09-10T18:52:01.200Z,99612.03
2022-09-10T18:54:32.653Z,99612.97
2022-09-10T18:57:01.220Z,99619.16
2022-09-10T18:59:28.930Z,99591.28
2022-09-10T19:01:57.281Z,99573.09
2022-09-10T19:04:26.613Z,99648.38
2022-09-10T19:06:54.850Z,99635.97
2022-09-10T19:09:23.551Z,99594.63
2022-09-10T19:11:54.270Z,99581.59
2022-09-10T19:14:23.410Z,99391.53
2022-09-10T19:16:51.981Z,99526.22
2022-09-10T19:19:22.227Z,99608.78
2022-09-10T19:21:51.312Z,99472.94
2022-09-10T19:24:32.818Z,99335.03
2022-09-10T19:27:07.513Z,99388.28
2022-09-10T19:29:35.682Z,99577.72
2022-09-10T19:32:04.380Z,99481.41
2022-09-10T19:34:32.456Z,99357.91
2022-09-10T19:37:00.592Z,99773.63
2022-09-10T19:39:28.492Z,99500.72
2022-09-10T19:41:56.574Z,99657.69
2022-09-10T19:44:26.039Z,99400.66
2022-09-10T19:46:53.917Z,99234.75
2022-09-10T19:49:22.323Z,99699.09
2022-09-10T19:51:50.132Z,99543.56
2022-09-10T19:54:18.536Z,99415.06
2022-09-10T19:56:50.739Z,99644.41
2022-09-10T19:59:18.958Z,99427.41
2022-09-10T20:01:50.138Z,99591.59
2022-09-10T20:04:18.621Z,99558.19
2022-09-10T20:06:47.816Z,99644.97
2022-09-10T20:09:16.815Z,99590.72
2022-09-10T20:11:45.837Z,99494.59
2022-09-10T20:14:14.560Z,99743.97
2022-09-10T20:16:43.791Z,99323.59
2022-09-10T20:19:14.365Z,99659.91
2022-09-10T20:21:42.587Z,99545.44
2022-09-10T20:24:10.804Z,99703.84
2022-09-10T20:26:41.218Z,99720.31
2022-09-10T20:29:11.358Z,99651.94
2022-09-10T20:31:41.219Z,99601.41
2022-09-10T20:34:11.352Z,99395.03
2022-09-10T20:36:42.344Z,99434.91
2022-09-10T20:39:11.321Z,99585.72
2022-09-10T20:41:40.100Z,99732.25
2022-09-10T20:44:07.977Z,99472.38
2022-09-10T20:46:35.810Z,99437.84
2022-09-10T20:49:04.358Z,99306.06
2022-09-10T20:51:33.413Z,99745.44
2022-09-10T20:54:02.982Z,99365.03
2022-09-10T20:56:30.884Z,99452.47
2022-09-10T20:58:59.392Z,99371.25
2022-09-10T21:01:28.291Z,99518.88
2022-09-10T21:03:59.176Z,99647.97
2022-09-10T21:06:28.195Z,99325.88
2022-09-10T21:08:56.534Z,99533.16
2022-09-10T21:11:29.385Z,99677.22
2022-09-10T21:13:58.071Z,99619.06
2022-09-10T21:16:27.269Z,99837.16
2022-09-10T21:18:56.602Z,99493.09
2022-09-10T21:21:25.864Z,99655.75
2022-09-10T21:23:54.629Z,99616.69
2022-09-10T21:26:23.449Z,99261.13
2022-09-10T21:28:53.261Z,99771.72
2022-09-10T21:31:21.359Z,99844.09
2022-09-10T21:33:50.322Z,99691.22
2022-09-10T21:36:19.135Z,99687.66
2022-09-10T21:38:48.210Z,99640.72
2022-09-10T21:41:17.027Z,99755.44
2022-09-10T21:43:45.624Z,99570.63
2022-09-10T21:46:15.462Z,99558.22
2022-09-10T21:48:44.326Z,99477.13
2022-09-10T21:51:13.758Z,99596.38
2022-09-10T21:53:41.740Z,99866.13
2022-09-10T21:56:09.823Z,99505.84
2022-09-10T21:58:38.015Z,99803.19
2022-09-10T22:01:10.448Z,99719.06
2022-09-10T22:03:39.865Z,99528.00
2022-09-10T22:06:09.282Z,99885.63
2022-09-10T22:08:37.618Z,99697.97
2022-09-10T22:11:07.723Z,99458.75
2022-09-10T22:13:38.104Z,99586.91
2022-09-10T22:16:06.922Z,99487.56
2022-09-10T22:18:35.423Z,99557.59
2022-09-10T22:21:04.885Z,99576.41
2022-09-10T22:23:40.731Z,99507.81
2022-09-10T22:26:09.680Z,99715.25
2022-09-10T22:28:38.648Z,99660.66
2022-09-10T22:31:10.146Z,99669.44
2022-09-10T22:33:39.291Z,99704.91
2022-09-10T22:36:15.496Z,99920.00
2022-09-10T22:38:43.734Z,99464.41
2022-09-10T22:41:14.470Z,99752.81
2022-09-10T22:43:42.892Z,99503.06
2022-09-10T22:46:11.644Z,99914.47
2022-09-10T22:48:42.977Z,99831.66
2022-09-10T22:51:12.082Z,99653.41
2022-09-10T22:53:50.042Z,99633.34
2022-09-10T22:56:19.531Z,99477.84
2022-09-10T22:58:51.795Z,99838.13
2022-09-10T23:01:21.480Z,99824.34
2022-09-10T23:03:49.475Z,99777.78
2022-09-10T23:06:18.203Z,99613.44
2022-09-10T23:08:48.707Z,99584.75
2022-09-10T23:11:17.741Z,99837.91
2022-09-10T23:13:46.216Z,99792.38
2022-09-10T23:16:15.302Z,99786.84
2022-09-10T23:18:43.524Z,99890.44
2022-09-10T23:21:12.049Z,99901.91
2022-09-10T23:23:40.297Z,99410.47
2022-09-10T23:26:10.927Z,99589.31
2022-09-10T23:28:42.224Z,99855.22
2022-09-10T23:31:13.564Z,99816.50
2022-09-10T23:33:42.467Z,99501.25
2022-09-10T23:36:11.666Z,99518.47
2022-09-10T23:38:39.850Z,99563.47
2022-09-10T23:41:09.669Z,99707.81
2022-09-10T23:43:37.612Z,99747.78
2022-09-10T23:46:05.652Z,99443.38
2022-09-10T23:48:35.482Z,99941.97
2022-09-10T23:51:03.553Z,99831.13
2022-09-10T23:53:32.062Z,99611.66
2022-09-10T23:56:00.248Z,99792.59
2022-09-10T23:58:29.662Z,99467.44
